createdAt,value
2023-04-20T00:06:57.287Z,24.30
2023-04-20T00:17:23.549Z,27.50
2023-04-20T00:27:49.160Z,28.60
2023-04-20T00:38:15.386Z,30.50
2023-04-20T00:48:41.287Z,28.40
2023-04-20T00:59:08.181Z,32.30
2023-04-20T01:09:34.163Z,34.00
2023-04-20T01:20:00.379Z,30.20
2023-04-20T01:30:26.662Z,29.80
2023-04-20T01:40:52.899Z,29.70
2023-04-20T01:51:18.866Z,31.20
2023-04-20T02:01:44.746Z,31.50
2023-04-20T02:12:10.545Z,29.40
2023-04-20T02:22:36.369Z,29.60
2023-04-20T02:33:02.556Z,31.30
2023-04-20T02:43:28.681Z,29.30
2023-04-20T02:53:54.524Z,29.10
2023-04-20T03:04:21.173Z,29.40
2023-04-20T03:14:47.189Z,29.10
2023-04-20T03:25:13.087Z,27.60
2023-04-20T03:35:39.590Z,30.90
2023-04-20T03:46:05.310Z,26.70
2023-04-20T03:56:31.541Z,27.80
2023-04-20T04:06:57.251Z,27.20
2023-04-20T04:17:23.724Z,25.60
2023-04-20T04:27:49.582Z,26.80
2023-04-20T04:38:16.073Z,25.10
2023-04-20T04:48:46.762Z,25.60
2023-04-20T04:59:12.737Z,27.40
2023-04-20T05:09:38.172Z,23.10
2023-04-20T05:20:06.493Z,23.20
2023-04-20T05:30:32.793Z,21.60
2023-04-20T05:40:58.869Z,20.50
2023-04-20T05:51:29.093Z,22.90
2023-04-20T06:01:54.937Z,17.70
2023-04-20T06:12:21.215Z,19.20
2023-04-20T06:22:47.392Z,15.40
2023-04-20T06:33:17.225Z,16.30
2023-04-20T06:43:45.462Z,12.90
2023-04-20T06:54:11.044Z,11.80
2023-04-20T07:04:36.712Z,13.70
2023-04-20T07:15:03.120Z,14.90
2023-04-20T07:25:31.523Z,14.50
2023-04-20T07:35:58.152Z,12.30
2023-04-20T07:46:25.212Z,13.80
2023-04-20T07:56:50.838Z,12.60
2023-04-20T08:07:16.815Z,15.70
2023-04-20T08:17:42.502Z,15.30
2023-04-20T08:28:11.985Z,13.90
2023-04-20T08:38:42.198Z,13.50
2023-04-20T08:49:12.894Z,12.00
2023-04-20T08:59:39.563Z,11.40
2023-04-20T09:10:05.285Z,11.50
2023-04-20T09:20:33.493Z,12.00
2023-04-20T09:30:59.161Z,10.90
2023-04-20T09:41:24.981Z,12.80
2023-04-20T09:51:51.962Z,12.00
2023-04-20T10:02:17.740Z,10.80
2023-04-20T10:12:55.517Z,10.50
2023-04-20T10:23:21.422Z,9.30
2023-04-20T10:33:55.624Z,8.70
2023-04-20T10:44:21.698Z,6.20
2023-04-20T10:54:47.948Z,6.60
2023-04-20T11:05:18.952Z,10.70
2023-04-20T11:15:44.899Z,6.30
2023-04-20T11:26:11.202Z,7.10
2023-04-20T11:36:41.930Z,6.80
2023-04-20T11:47:08.100Z,5.90
2023-04-20T11:57:34.817Z,6.20
2023-04-20T12:08:00.408Z,5.20
2023-04-20T12:18:26.310Z,4.90
2023-04-20T12:28:52.414Z,4.60
2023-04-20T12:39:18.472Z,6.40
2023-04-20T12:49:44.199Z,5.40
2023-04-20T13:00:14.643Z,6.30
2023-04-20T13:10:42.846Z,7.90
2023-04-20T13:21:09.290Z,8.20
2023-04-20T13:31:34.769Z,6.30
2023-04-20T13:42:00.765Z,6.90
2023-04-20T13:52:26.808Z,5.60
2023-04-20T14:02:52.593Z,4.90
2023-04-20T14:13:19.083Z,4.80
2023-04-20T14:23:45.099Z,3.90
2023-04-20T14:34:10.692Z,2.70
2023-04-20T14:44:36.466Z,3.10
2023-04-20T14:55:02.308Z,3.70
2023-04-20T15:05:28.915Z,3.00
2023-04-20T15:15:55.447Z,3.20
2023-04-20T15:26:21.585Z,2.90
2023-04-20T15:36:47.587Z,2.90
2023-04-20T15:47:13.657Z,2.80
2023-04-20T15:57:39.689Z,2.60
2023-04-20T16:08:06.665Z,2.90
2023-04-20T16:18:33.126Z,3.30
2023-04-20T16:28:58.832Z,3.00
2023-04-20T16:39:24.779Z,3.00
2023-04-20T16:49:51.163Z,3.50
2023-04-20T17:00:19.529Z,2.80
2023-04-20T17:10:45.240Z,3.10
2023-04-20T17:21:11.874Z,4.20
2023-04-20T17:31:37.469Z,5.20
2023-04-20T17:42:03.617Z,5.10
2023-04-20T17:52:29.520Z,3.80
2023-04-20T18:02:55.793Z,3.50
2023-04-20T18:13:21.657Z,3.80
2023-04-20T18:23:47.428Z,3.90
2023-04-20T18:34:13.661Z,4.00
2023-04-20T18:44:41.080Z,4.00
2023-04-20T18:55:08.414Z,5.60
2023-04-20T19:05:34.088Z,10.20
2023-04-20T19:15:59.790Z,14.80
2023-04-20T19:26:26.046Z,11.70
2023-04-20T19:36:51.691Z,10.30
2023-04-20T19:47:20.863Z,10.50
2023-04-20T19:57:46.971Z,11.20
2023-04-20T20:08:13.754Z,11.80
2023-04-20T20:18:39.555Z,14.40
2023-04-20T20:29:05.521Z,12.80
2023-04-20T20:39:32.452Z,12.10
2023-04-20T20:49:58.290Z,11.00
2023-04-20T21:00:24.153Z,9.90
2023-04-20T21:10:50.316Z,9.00
2023-04-20T21:21:16.794Z,10.20
2023-04-20T21:31:42.773Z,10.10
2023-04-20T21:42:09.039Z,12.40
2023-04-20T21:52:34.713Z,9.60
2023-04-20T22:03:04.211Z,8.80
2023-04-20T22:13:30.205Z,9.10
2023-04-20T22:23:56.695Z,8.40
2023-04-20T22:34:22.561Z,11.70
2023-04-20T22:44:49.343Z,9.20
2023-04-20T22:55:15.480Z,10.30
2023-04-20T23:05:44.527Z,8.60
2023-04-20T23:16:11.412Z,8.60
2023-04-20T23:26:37.412Z,9.20
2023-04-20T23:37:03.468Z,8.80
2023-04-20T23:47:28.930Z,7.00
2023-04-20T23:57:55.272Z,6.40
